sensor_id;sensor_type;location;lat;lon;timestamp;pressure;altitude;pressure_sealevel;temperature;humidity
81931;BME280;71395;43.488;1.472;2024-03-06T00:02:11;100330.78;;;9.32;72.36
81931;BME280;71395;43.488;1.472;2024-03-06T00:04:37;100315.34;;;9.22;72.24
81931;BME280;71395;43.488;1.472;2024-03-06T00:07:03;100300.19;;;9.11;72.17
81931;BME280;71395;43.488;1.472;2024-03-06T00:09:29;100308.78;;;9.13;72.71
81931;BME280;71395;43.488;1.472;2024-03-06T00:11:55;100340.34;;;9.28;72.15
81931;BME280;71395;43.488;1.472;2024-03-06T00:14:22;100340.59;;;9.26;72.42
81931;BME280;71395;43.488;1.472;2024-03-06T00:16:48;100340.50;;;9.21;72.55
81931;BME280;71395;43.488;1.472;2024-03-06T00:19:18;100349.56;;;9.20;71.87
81931;BME280;71395;43.488;1.472;2024-03-06T00:21:44;100352.25;;;9.20;73.04
81931;BME280;71395;43.488;1.472;2024-03-06T00:24:16;100333.47;;;9.03;72.58
81931;BME280;71395;43.488;1.472;2024-03-06T00:26:43;100359.03;;;9.11;72.29
81931;BME280;71395;43.488;1.472;2024-03-06T00:29:09;100339.53;;;8.99;72.62
81931;BME280;71395;43.488;1.472;2024-03-06T00:31:35;100361.91;;;9.10;72.56
81931;BME280;71395;43.488;1.472;2024-03-06T00:34:01;100348.44;;;9.04;72.38
81931;BME280;71395;43.488;1.472;2024-03-06T00:36:27;100330.59;;;8.93;72.39
81931;BME280;71395;43.488;1.472;2024-03-06T00:38:53;100337.44;;;9.01;73.67
81931;BME280;71395;43.488;1.472;2024-03-06T00:41:18;100340.59;;;8.98;72.22
81931;BME280;71395;43.488;1.472;2024-03-06T00:43:44;100348.13;;;9.01;72.48
81931;BME280;71395;43.488;1.472;2024-03-06T00:46:11;100344.97;;;9.04;72.72
81931;BME280;71395;43.488;1.472;2024-03-06T00:48:36;100349.16;;;9.00;73.73
81931;BME280;71395;43.488;1.472;2024-03-06T00:51:05;100366.72;;;9.07;72.98
81931;BME280;71395;43.488;1.472;2024-03-06T00:53:32;100335.03;;;8.88;73.00
81931;BME280;71395;43.488;1.472;2024-03-06T00:55:58;100359.88;;;9.00;72.30
81931;BME280;71395;43.488;1.472;2024-03-06T00:58:24;100347.78;;;8.97;72.82
81931;BME280;71395;43.488;1.472;2024-03-06T01:00:49;100344.22;;;8.92;72.24
81931;BME280;71395;43.488;1.472;2024-03-06T01:03:15;100344.78;;;8.94;72.83
81931;BME280;71395;43.488;1.472;2024-03-06T01:05:41;100346.03;;;9.03;73.43
81931;BME280;71395;43.488;1.472;2024-03-06T01:08:06;100333.78;;;8.90;72.75
81931;BME280;71395;43.488;1.472;2024-03-06T01:10:32;100340.50;;;8.93;73.40
81931;BME280;71395;43.488;1.472;2024-03-06T01:12:58;100345.38;;;8.96;73.09
81931;BME280;71395;43.488;1.472;2024-03-06T01:15:23;100341.16;;;9.00;72.64
81931;BME280;71395;43.488;1.472;2024-03-06T01:17:49;100357.06;;;9.06;73.27
81931;BME280;71395;43.488;1.472;2024-03-06T01:20:16;100343.34;;;9.03;73.66
81931;BME280;71395;43.488;1.472;2024-03-06T01:22:41;100343.94;;;9.05;73.72
81931;BME280;71395;43.488;1.472;2024-03-06T01:25:07;100328.94;;;9.04;73.11
81931;BME280;71395;43.488;1.472;2024-03-06T01:27:32;100336.00;;;9.10;73.02
81931;BME280;71395;43.488;1.472;2024-03-06T01:29:58;100324.16;;;9.06;72.24
81931;BME280;71395;43.488;1.472;2024-03-06T01:32:24;100307.53;;;9.04;73.12
81931;BME280;71395;43.488;1.472;2024-03-06T01:34:49;100326.59;;;9.07;72.99
81931;BME280;71395;43.488;1.472;2024-03-06T01:37:15;100345.25;;;9.19;72.52
81931;BME280;71395;43.488;1.472;2024-03-06T01:39:41;100309.97;;;9.05;71.91
81931;BME280;71395;43.488;1.472;2024-03-06T01:42:07;100307.31;;;9.05;73.08
81931;BME280;71395;43.488;1.472;2024-03-06T01:44:32;100326.53;;;9.19;73.29
81931;BME280;71395;43.488;1.472;2024-03-06T01:46:58;100326.63;;;9.24;72.07
81931;BME280;71395;43.488;1.472;2024-03-06T01:49:25;100308.31;;;9.16;73.15
81931;BME280;71395;43.488;1.472;2024-03-06T01:51:54;100298.66;;;9.15;72.35
81931;BME280;71395;43.488;1.472;2024-03-06T01:54:21;100304.41;;;9.24;72.41
81931;BME280;71395;43.488;1.472;2024-03-06T01:56:48;100294.34;;;9.14;73.04
81931;BME280;71395;43.488;1.472;2024-03-06T01:59:21;100309.13;;;9.33;72.57
81931;BME280;71395;43.488;1.472;2024-03-06T02:01:47;100289.31;;;9.18;71.84
81931;BME280;71395;43.488;1.472;2024-03-06T02:04:13;100302.63;;;9.29;73.11
81931;BME280;71395;43.488;1.472;2024-03-06T02:06:39;100278.97;;;9.21;71.98
81931;BME280;71395;43.488;1.472;2024-03-06T02:09:05;100300.03;;;9.35;72.62
81931;BME280;71395;43.488;1.472;2024-03-06T02:11:32;100292.00;;;9.35;72.61
81931;BME280;71395;43.488;1.472;2024-03-06T02:13:58;100293.88;;;9.34;73.58
81931;BME280;71395;43.488;1.472;2024-03-06T02:16:23;100278.00;;;9.27;72.47
81931;BME280;71395;43.488;1.472;2024-03-06T02:18:53;100290.16;;;9.35;72.44
81931;BME280;71395;43.488;1.472;2024-03-06T02:21:23;100267.44;;;9.21;73.30
81931;BME280;71395;43.488;1.472;2024-03-06T02:23:49;100261.38;;;9.25;72.50
81931;BME280;71395;43.488;1.472;2024-03-06T02:26:17;100273.78;;;9.31;73.53
81931;BME280;71395;43.488;1.472;2024-03-06T02:28:53;100267.28;;;9.27;73.87
81931;BME280;71395;43.488;1.472;2024-03-06T02:31:19;100277.00;;;9.33;73.07
81931;BME280;71395;43.488;1.472;2024-03-06T02:33:46;100275.16;;;9.34;73.46
81931;BME280;71395;43.488;1.472;2024-03-06T02:36:16;100239.06;;;9.20;73.17
81931;BME280;71395;43.488;1.472;2024-03-06T02:38:45;100267.94;;;9.35;74.23
81931;BME280;71395;43.488;1.472;2024-03-06T02:41:11;100237.13;;;9.15;72.89
81931;BME280;71395;43.488;1.472;2024-03-06T02:43:37;100252.38;;;9.31;72.65
81931;BME280;71395;43.488;1.472;2024-03-06T02:46:03;100213.38;;;9.02;73.23
81931;BME280;71395;43.488;1.472;2024-03-06T02:48:29;100259.81;;;9.29;73.95
81931;BME280;71395;43.488;1.472;2024-03-06T02:50:55;100250.91;;;9.24;73.52
81931;BME280;71395;43.488;1.472;2024-03-06T02:53:21;100255.34;;;9.18;73.48
81931;BME280;71395;43.488;1.472;2024-03-06T02:55:47;100249.53;;;9.21;73.07
81931;BME280;71395;43.488;1.472;2024-03-06T02:58:13;100254.88;;;9.21;73.38
81931;BME280;71395;43.488;1.472;2024-03-06T03:00:42;100228.78;;;9.12;73.33
81931;BME280;71395;43.488;1.472;2024-03-06T03:03:09;100245.25;;;9.20;73.18
81931;BME280;71395;43.488;1.472;2024-03-06T03:05:35;100244.75;;;9.23;74.36
81931;BME280;71395;43.488;1.472;2024-03-06T03:08:01;100225.50;;;9.10;73.02
81931;BME280;71395;43.488;1.472;2024-03-06T03:10:29;100244.09;;;9.16;73.34
81931;BME280;71395;43.488;1.472;2024-03-06T03:12:54;100218.81;;;9.07;73.78
81931;BME280;71395;43.488;1.472;2024-03-06T03:15:20;100229.84;;;9.11;74.04
81931;BME280;71395;43.488;1.472;2024-03-06T03:17:46;100208.91;;;8.91;72.88
81931;BME280;71395;43.488;1.472;2024-03-06T03:20:12;100242.41;;;9.10;73.34
81931;BME280;71395;43.488;1.472;2024-03-06T03:22:41;100234.50;;;9.03;73.52
81931;BME280;71395;43.488;1.472;2024-03-06T03:25:08;100253.00;;;9.05;73.33
81931;BME280;71395;43.488;1.472;2024-03-06T03:27:36;100238.41;;;8.96;73.35
81931;BME280;71395;43.488;1.472;2024-03-06T03:30:02;100227.13;;;8.94;74.07
81931;BME280;71395;43.488;1.472;2024-03-06T03:32:28;100229.41;;;9.02;73.22
81931;BME280;71395;43.488;1.472;2024-03-06T03:34:54;100210.34;;;8.82;73.07
81931;BME280;71395;43.488;1.472;2024-03-06T03:37:19;100249.19;;;9.01;73.56
81931;BME280;71395;43.488;1.472;2024-03-06T03:39:45;100228.19;;;8.93;74.39
81931;BME280;71395;43.488;1.472;2024-03-06T03:42:11;100240.44;;;9.05;72.81
81931;BME280;71395;43.488;1.472;2024-03-06T03:44:36;100242.31;;;9.05;73.53
81931;BME280;71395;43.488;1.472;2024-03-06T03:47:02;100235.50;;;8.97;73.48
81931;BME280;71395;43.488;1.472;2024-03-06T03:49:28;100240.03;;;8.97;73.95
81931;BME280;71395;43.488;1.472;2024-03-06T03:51:53;100214.72;;;8.88;73.50
81931;BME280;71395;43.488;1.472;2024-03-06T03:54:19;100220.50;;;8.96;74.30
81931;BME280;71395;43.488;1.472;2024-03-06T03:56:45;100231.50;;;9.00;73.84
81931;BME280;71395;43.488;1.472;2024-03-06T03:59:10;100224.53;;;8.99;73.97
81931;BME280;71395;43.488;1.472;2024-03-06T04:01:36;100197.53;;;8.84;73.92
81931;BME280;71395;43.488;1.472;2024-03-06T04:04:01;100200.31;;;8.89;73.32
81931;BME280;71395;43.488;1.472;2024-03-06T04:06:27;100209.84;;;8.85;74.09
81931;BME280;71395;43.488;1.472;2024-03-06T04:08:53;100195.75;;;8.72;74.16
81931;BME280;71395;43.488;1.472;2024-03-06T04:11:18;100211.97;;;8.83;74.39
81931;BME280;71395;43.488;1.472;2024-03-06T04:13:44;100228.91;;;8.88;73.83
81931;BME280;71395;43.488;1.472;2024-03-06T04:16:10;100227.53;;;8.86;74.19
81931;BME280;71395;43.488;1.472;2024-03-06T04:18:35;100225.41;;;8.88;73.57
81931;BME280;71395;43.488;1.472;2024-03-06T04:21:06;100211.63;;;8.79;73.37
81931;BME280;71395;43.488;1.472;2024-03-06T04:23:33;100246.00;;;8.87;74.82
81931;BME280;71395;43.488;1.472;2024-03-06T04:25:59;100220.72;;;8.78;74.42
81931;BME280;71395;43.488;1.472;2024-03-06T04:28:25;100165.22;;;8.40;74.85
81931;BME280;71395;43.488;1.472;2024-03-06T04:30:51;100243.66;;;8.91;74.39
81931;BME280;71395;43.488;1.472;2024-03-06T04:33:17;100229.97;;;8.87;74.07
81931;BME280;71395;43.488;1.472;2024-03-06T04:35:42;100216.66;;;8.75;73.36
81931;BME280;71395;43.488;1.472;2024-03-06T04:38:08;100234.50;;;8.87;73.88
81931;BME280;71395;43.488;1.472;2024-03-06T04:40:34;100224.69;;;8.75;74.32
81931;BME280;71395;43.488;1.472;2024-03-06T04:43:00;100243.00;;;8.84;73.95
81931;BME280;71395;43.488;1.472;2024-03-06T04:45:26;100253.78;;;8.89;74.71
81931;BME280;71395;43.488;1.472;2024-03-06T04:47:52;100229.94;;;8.70;74.74
81931;BME280;71395;43.488;1.472;2024-03-06T04:50:17;100252.63;;;8.85;74.07
81931;BME280;71395;43.488;1.472;2024-03-06T04:52:43;100239.03;;;8.86;74.70
81931;BME280;71395;43.488;1.472;2024-03-06T04:55:10;100240.41;;;8.89;73.74
81931;BME280;71395;43.488;1.472;2024-03-06T04:57:37;100202.06;;;8.66;74.18
81931;BME280;71395;43.488;1.472;2024-03-06T05:00:03;100209.69;;;8.74;73.36
81931;BME280;71395;43.488;1.472;2024-03-06T05:02:34;100228.00;;;8.83;74.14
81931;BME280;71395;43.488;1.472;2024-03-06T05:05:01;100218.75;;;8.73;74.39
81931;BME280;71395;43.488;1.472;2024-03-06T05:07:31;100229.06;;;8.82;74.82
81931;BME280;71395;43.488;1.472;2024-03-06T05:09:58;100229.28;;;8.80;74.71
81931;BME280;71395;43.488;1.472;2024-03-06T05:12:24;100243.59;;;8.86;74.24
81931;BME280;71395;43.488;1.472;2024-03-06T05:14:51;100235.22;;;8.82;74.04
81931;BME280;71395;43.488;1.472;2024-03-06T05:17:16;100207.97;;;8.68;74.64
81931;BME280;71395;43.488;1.472;2024-03-06T05:19:43;100233.00;;;8.79;74.39
81931;BME280;71395;43.488;1.472;2024-03-06T05:22:10;100221.19;;;8.75;74.17
81931;BME280;71395;43.488;1.472;2024-03-06T05:24:37;100243.59;;;8.86;74.60
81931;BME280;71395;43.488;1.472;2024-03-06T05:27:02;100231.25;;;8.85;73.59
81931;BME280;71395;43.488;1.472;2024-03-06T05:29:28;100220.72;;;8.78;75.11
81931;BME280;71395;43.488;1.472;2024-03-06T05:31:54;100223.47;;;8.83;75.00
81931;BME280;71395;43.488;1.472;2024-03-06T05:34:21;100217.69;;;8.74;73.64
81931;BME280;71395;43.488;1.472;2024-03-06T05:36:48;100238.22;;;8.86;74.57
81931;BME280;71395;43.488;1.472;2024-03-06T05:39:13;100240.91;;;8.86;74.61
81931;BME280;71395;43.488;1.472;2024-03-06T05:41:40;100205.22;;;8.63;75.10
81931;BME280;71395;43.488;1.472;2024-03-06T05:44:06;100210.56;;;8.63;74.90
81931;BME280;71395;43.488;1.472;2024-03-06T05:46:32;100238.69;;;8.83;73.90
81931;BME280;71395;43.488;1.472;2024-03-06T05:48:57;100220.53;;;8.68;75.02
81931;BME280;71395;43.488;1.472;2024-03-06T05:51:23;100234.88;;;8.78;73.93
81931;BME280;71395;43.488;1.472;2024-03-06T05:53:49;100229.44;;;8.73;74.56
81931;BME280;71395;43.488;1.472;2024-03-06T05:56:14;100231.66;;;8.76;75.24
81931;BME280;71395;43.488;1.472;2024-03-06T05:58:40;100217.59;;;8.69;73.85
81931;BME280;71395;43.488;1.472;2024-03-06T06:01:05;100207.72;;;8.70;74.59
81931;BME280;71395;43.488;1.472;2024-03-06T06:03:32;100237.97;;;8.87;73.86
81931;BME280;71395;43.488;1.472;2024-03-06T06:05:58;100231.56;;;8.88;75.21
81931;BME280;71395;43.488;1.472;2024-03-06T06:08:24;100206.44;;;8.72;75.28
81931;BME280;71395;43.488;1.472;2024-03-06T06:10:50;100234.50;;;8.87;73.81
81931;BME280;71395;43.488;1.472;2024-03-06T06:13:18;100225.25;;;8.77;74.63
81931;BME280;71395;43.488;1.472;2024-03-06T06:15:43;100213.91;;;8.70;75.04
81931;BME280;71395;43.488;1.472;2024-03-06T06:18:09;100232.38;;;8.72;74.08
81931;BME280;71395;43.488;1.472;2024-03-06T06:20:35;100234.78;;;8.73;74.05
81931;BME280;71395;43.488;1.472;2024-03-06T06:23:01;100239.06;;;8.74;74.12
81931;BME280;71395;43.488;1.472;2024-03-06T06:25:27;100238.78;;;8.71;74.32
81931;BME280;71395;43.488;1.472;2024-03-06T06:27:52;100241.66;;;8.69;74.40
81931;BME280;71395;43.488;1.472;2024-03-06T06:30:19;100222.44;;;8.56;74.62
81931;BME280;71395;43.488;1.472;2024-03-06T06:32:45;100234.94;;;8.67;74.24
81931;BME280;71395;43.488;1.472;2024-03-06T06:35:10;100222.75;;;8.59;75.00
81931;BME280;71395;43.488;1.472;2024-03-06T06:37:39;100243.22;;;8.65;74.63
81931;BME280;71395;43.488;1.472;2024-03-06T06:40:07;100216.06;;;8.45;73.74
81931;BME280;71395;43.488;1.472;2024-03-06T06:42:34;100248.06;;;8.68;75.18
81931;BME280;71395;43.488;1.472;2024-03-06T06:45:00;100214.97;;;8.41;75.00
81931;BME280;71395;43.488;1.472;2024-03-06T06:47:26;100256.78;;;8.64;74.37
81931;BME280;71395;43.488;1.472;2024-03-06T06:49:52;100231.75;;;8.53;75.34
81931;BME280;71395;43.488;1.472;2024-03-06T06:52:17;100220.41;;;8.46;74.36
81931;BME280;71395;43.488;1.472;2024-03-06T06:54:44;100211.22;;;8.42;73.89
81931;BME280;71395;43.488;1.472;2024-03-06T06:57:10;100239.13;;;8.63;74.83
81931;BME280;71395;43.488;1.472;2024-03-06T06:59:36;100243.69;;;8.62;74.56
81931;BME280;71395;43.488;1.472;2024-03-06T07:02:05;100217.00;;;8.50;74.41
81931;BME280;71395;43.488;1.472;2024-03-06T07:04:31;100231.84;;;8.58;74.18
81931;BME280;71395;43.488;1.472;2024-03-06T07:06:57;100208.06;;;8.45;74.89
81931;BME280;71395;43.488;1.472;2024-03-06T07:09:22;100234.59;;;8.63;73.93
81931;BME280;71395;43.488;1.472;2024-03-06T07:11:48;100215.06;;;8.46;74.26
81931;BME280;71395;43.488;1.472;2024-03-06T07:14:14;100239.84;;;8.58;74.33
81931;BME280;71395;43.488;1.472;2024-03-06T07:16:46;100231.03;;;8.58;74.89
81931;BME280;71395;43.488;1.472;2024-03-06T07:19:12;100229.06;;;8.53;74.20
81931;BME280;71395;43.488;1.472;2024-03-06T07:21:38;100234.75;;;8.57;74.34
81931;BME280;71395;43.488;1.472;2024-03-06T07:24:04;100209.63;;;8.41;74.93
81931;BME280;71395;43.488;1.472;2024-03-06T07:26:33;100234.50;;;8.58;75.12
81931;BME280;71395;43.488;1.472;2024-03-06T07:28:59;100234.59;;;8.63;74.56
81931;BME280;71395;43.488;1.472;2024-03-06T07:31:26;100204.94;;;8.48;74.44
81931;BME280;71395;43.488;1.472;2024-03-06T07:33:52;100209.09;;;8.56;76.12
81931;BME280;71395;43.488;1.472;2024-03-06T07:36:18;100230.03;;;8.75;75.51
81931;BME280;71395;43.488;1.472;2024-03-06T07:38:44;100223.13;;;8.79;74.67
81931;BME280;71395;43.488;1.472;2024-03-06T07:41:10;100217.31;;;8.83;75.92
81931;BME280;71395;43.488;1.472;2024-03-06T07:43:36;100232.56;;;8.99;75.54
81931;BME280;71395;43.488;1.472;2024-03-06T07:46:04;100231.75;;;8.98;74.38
81931;BME280;71395;43.488;1.472;2024-03-06T07:48:38;100229.97;;;9.04;74.91
81931;BME280;71395;43.488;1.472;2024-03-06T07:51:04;100214.91;;;8.98;75.90
81931;BME280;71395;43.488;1.472;2024-03-06T07:53:30;100236.16;;;9.21;74.90
81931;BME280;71395;43.488;1.472;2024-03-06T07:55:55;100218.81;;;9.24;75.16
81931;BME280;71395;43.488;1.472;2024-03-06T07:58:21;100226.44;;;9.32;74.71
81931;BME280;71395;43.488;1.472;2024-03-06T08:00:46;100221.63;;;9.34;74.82
81931;BME280;71395;43.488;1.472;2024-03-06T08:03:12;100247.41;;;9.57;74.76
81931;BME280;71395;43.488;1.472;2024-03-06T08:05:39;100247.00;;;9.65;74.94
81931;BME280;71395;43.488;1.472;2024-03-06T08:08:05;100240.66;;;9.71;74.29
81931;BME280;71395;43.488;1.472;2024-03-06T08:10:30;100240.16;;;9.74;73.67
81931;BME280;71395;43.488;1.472;2024-03-06T08:12:56;100243.56;;;9.87;74.34
81931;BME280;71395;43.488;1.472;2024-03-06T08:15:23;100245.97;;;9.88;74.13
81931;BME280;71395;43.488;1.472;2024-03-06T08:17:49;100245.81;;;9.95;74.12
81931;BME280;71395;43.488;1.472;2024-03-06T08:20:14;100252.78;;;9.96;73.65
81931;BME280;71395;43.488;1.472;2024-03-06T08:22:41;100259.84;;;10.02;74.60
81931;BME280;71395;43.488;1.472;2024-03-06T08:25:08;100255.53;;;10.01;74.52
81931;BME280;71395;43.488;1.472;2024-03-06T08:27:35;100254.22;;;10.03;74.00
81931;BME280;71395;43.488;1.472;2024-03-06T08:30:03;100224.88;;;9.92;73.04
81931;BME280;71395;43.488;1.472;2024-03-06T08:32:31;100256.81;;;10.15;73.60
81931;BME280;71395;43.488;1.472;2024-03-06T08:34:58;100252.53;;;10.19;73.82
81931;BME280;71395;43.488;1.472;2024-03-06T08:37:24;100253.38;;;10.20;73.69
81931;BME280;71395;43.488;1.472;2024-03-06T08:39:50;100257.25;;;10.29;74.30
81931;BME280;71395;43.488;1.472;2024-03-06T08:42:16;100253.03;;;10.33;72.81
81931;BME280;71395;43.488;1.472;2024-03-06T08:44:44;100265.31;;;10.51;73.17
81931;BME280;71395;43.488;1.472;2024-03-06T08:47:11;100259.94;;;10.51;74.01
81931;BME280;71395;43.488;1.472;2024-03-06T08:49:37;100252.44;;;10.53;73.65
81931;BME280;71395;43.488;1.472;2024-03-06T08:52:02;100259.25;;;10.60;72.05
81931;BME280;71395;43.488;1.472;2024-03-06T08:54:28;100260.13;;;10.66;73.04
81931;BME280;71395;43.488;1.472;2024-03-06T08:56:56;100262.31;;;10.69;73.14
81931;BME280;71395;43.488;1.472;2024-03-06T08:59:24;100272.13;;;10.85;72.94
81931;BME280;71395;43.488;1.472;2024-03-06T09:01:53;100267.81;;;10.84;72.87
81931;BME280;71395;43.488;1.472;2024-03-06T09:04:19;100273.34;;;11.00;71.83
81931;BME280;71395;43.488;1.472;2024-03-06T09:06:45;100243.69;;;10.84;72.20
81931;BME280;71395;43.488;1.472;2024-03-06T09:09:11;100260.72;;;11.00;71.99
81931;BME280;71395;43.488;1.472;2024-03-06T09:11:40;100252.41;;;11.02;71.35
81931;BME280;71395;43.488;1.472;2024-03-06T09:14:07;100261.38;;;11.12;71.94
81931;BME280;71395;43.488;1.472;2024-03-06T09:16:34;100261.47;;;11.23;71.66
81931;BME280;71395;43.488;1.472;2024-03-06T09:19:00;100274.16;;;11.32;71.24
81931;BME280;71395;43.488;1.472;2024-03-06T09:21:26;100279.56;;;11.37;71.79
81931;BME280;71395;43.488;1.472;2024-03-06T09:23:52;100271.00;;;11.41;71.90
81931;BME280;71395;43.488;1.472;2024-03-06T09:26:18;100277.00;;;11.53;70.37
81931;BME280;71395;43.488;1.472;2024-03-06T09:28:43;100261.94;;;11.47;70.55
81931;BME280;71395;43.488;1.472;2024-03-06T09:31:09;100272.75;;;11.57;70.05
81931;BME280;71395;43.488;1.472;2024-03-06T09:33:35;100276.00;;;11.59;70.77
81931;BME280;71395;43.488;1.472;2024-03-06T09:36:00;100271.47;;;11.64;70.12
81931;BME280;71395;43.488;1.472;2024-03-06T09:38:26;100293.06;;;11.80;69.25
81931;BME280;71395;43.488;1.472;2024-03-06T09:40:51;100278.25;;;11.77;69.87
81931;BME280;71395;43.488;1.472;2024-03-06T09:43:20;100270.16;;;11.72;69.34
81931;BME280;71395;43.488;1.472;2024-03-06T09:45:48;100280.44;;;11.80;68.83
81931;BME280;71395;43.488;1.472;2024-03-06T09:48:14;100279.34;;;11.81;69.15
81931;BME280;71395;43.488;1.472;2024-03-06T09:50:43;100288.50;;;11.80;68.57
81931;BME280;71395;43.488;1.472;2024-03-06T09:53:12;100280.38;;;11.70;69.14
81931;BME280;71395;43.488;1.472;2024-03-06T09:55:41;100284.16;;;11.74;68.03
81931;BME280;71395;43.488;1.472;2024-03-06T09:58:07;100267.97;;;11.64;68.70
81931;BME280;71395;43.488;1.472;2024-03-06T10:00:36;100258.81;;;11.60;68.50
81931;BME280;71395;43.488;1.472;2024-03-06T10:03:03;100269.63;;;11.70;68.21
81931;BME280;71395;43.488;1.472;2024-03-06T10:05:31;100273.41;;;11.74;68.20
81931;BME280;71395;43.488;1.472;2024-03-06T10:07:59;100265.31;;;11.69;68.44
81931;BME280;71395;43.488;1.472;2024-03-06T10:10:26;100274.50;;;11.78;67.95
81931;BME280;71395;43.488;1.472;2024-03-06T10:12:52;100262.38;;;11.71;67.53
81931;BME280;71395;43.488;1.472;2024-03-06T10:15:18;100265.31;;;11.69;68.36
81931;BME280;71395;43.488;1.472;2024-03-06T10:17:43;100239.41;;;11.53;68.00
81931;BME280;71395;43.488;1.472;2024-03-06T10:20:18;100263.69;;;11.68;67.81
81931;BME280;71395;43.488;1.472;2024-03-06T10:22:52;100266.63;;;11.67;68.47
81931;BME280;71395;43.488;1.472;2024-03-06T10:25:22;100257.22;;;11.64;68.44
81931;BME280;71395;43.488;1.472;2024-03-06T10:28:21;100260.47;;;11.66;67.49
81931;BME280;71395;43.488;1.472;2024-03-06T10:30:49;100267.72;;;11.65;68.24
81931;BME280;71395;43.488;1.472;2024-03-06T10:33:16;100259.66;;;11.65;68.20
81931;BME280;71395;43.488;1.472;2024-03-06T10:35:46;100262.06;;;11.67;69.00
81931;BME280;71395;43.488;1.472;2024-03-06T10:38:15;100232.44;;;11.52;67.83
81931;BME280;71395;43.488;1.472;2024-03-06T10:40:43;100245.66;;;11.63;68.20
81931;BME280;71395;43.488;1.472;2024-03-06T10:43:10;100254.03;;;11.72;68.43
81931;BME280;71395;43.488;1.472;2024-03-06T10:46:00;100225.47;;;11.56;68.41
81931;BME280;71395;43.488;1.472;2024-03-06T10:48:28;100243.25;;;11.67;68.81
81931;BME280;71395;43.488;1.472;2024-03-06T10:50:54;100242.22;;;11.73;69.08
81931;BME280;71395;43.488;1.472;2024-03-06T10:53:21;100227.19;;;11.72;68.28
81931;BME280;71395;43.488;1.472;2024-03-06T10:55:49;100245.56;;;11.85;69.25
81931;BME280;71395;43.488;1.472;2024-03-06T10:58:16;100227.78;;;11.79;68.42
81931;BME280;71395;43.488;1.472;2024-03-06T11:00:47;100232.13;;;11.85;67.77
81931;BME280;71395;43.488;1.472;2024-03-06T11:03:14;100209.75;;;11.75;68.17
81931;BME280;71395;43.488;1.472;2024-03-06T11:05:40;100237.03;;;11.94;68.20
81931;BME280;71395;43.488;1.472;2024-03-06T11:08:13;100239.44;;;11.95;67.42
81931;BME280;71395;43.488;1.472;2024-03-06T11:10:41;100214.13;;;11.86;67.74
81931;BME280;71395;43.488;1.472;2024-03-06T11:13:23;100218.78;;;12.01;67.31
81931;BME280;71395;43.488;1.472;2024-03-06T11:15:51;100227.66;;;12.01;67.48
81931;BME280;71395;43.488;1.472;2024-03-06T11:23:27;100218.78;;;12.01;67.18
81931;BME280;71395;43.488;1.472;2024-03-06T11:28:28;100226.56;;;12.02;66.95
81931;BME280;71395;43.488;1.472;2024-03-06T11:31:07;100221.75;;;11.99;67.20
81931;BME280;71395;43.488;1.472;2024-03-06T11:33:42;100218.22;;;11.94;66.57
81931;BME280;71395;43.488;1.472;2024-03-06T11:36:16;100206.91;;;11.92;66.34
81931;BME280;71395;43.488;1.472;2024-03-06T11:39:05;100195.63;;;11.89;66.32
81931;BME280;71395;43.488;1.472;2024-03-06T11:44:14;100191.38;;;11.99;66.90
81931;BME280;71395;43.488;1.472;2024-03-06T11:46:57;100194.59;;;12.01;66.01
81931;BME280;71395;43.488;1.472;2024-03-06T11:49:24;100180.06;;;11.97;66.79
81931;BME280;71395;43.488;1.472;2024-03-06T11:51:59;100190.34;;;12.10;66.28
81931;BME280;71395;43.488;1.472;2024-03-06T11:54:25;100194.13;;;12.14;66.49
81931;BME280;71395;43.488;1.472;2024-03-06T11:56:54;100185.78;;;12.15;65.57
81931;BME280;71395;43.488;1.472;2024-03-06T11:59:30;100177.44;;;12.17;65.48
81931;BME280;71395;43.488;1.472;2024-03-06T12:02:02;100176.38;;;12.23;66.13
81931;BME280;71395;43.488;1.472;2024-03-06T12:04:34;100176.69;;;12.27;66.28
81931;BME280;71395;43.488;1.472;2024-03-06T12:07:02;100159.19;;;12.19;65.98
81931;BME280;71395;43.488;1.472;2024-03-06T12:09:32;100168.38;;;12.33;65.37
81931;BME280;71395;43.488;1.472;2024-03-06T12:11:58;100163.53;;;12.35;65.55
81931;BME280;71395;43.488;1.472;2024-03-06T12:14:24;100153.06;;;12.34;65.92
81931;BME280;71395;43.488;1.472;2024-03-06T12:17:12;100143.63;;;12.36;65.30
81931;BME280;71395;43.488;1.472;2024-03-06T12:19:42;100154.69;;;12.45;65.45
81931;BME280;71395;43.488;1.472;2024-03-06T12:22:10;100143.13;;;12.45;65.42
81931;BME280;71395;43.488;1.472;2024-03-06T12:24:36;100127.50;;;12.41;65.16
81931;BME280;71395;43.488;1.472;2024-03-06T12:27:06;100143.16;;;12.55;64.93
81931;BME280;71395;43.488;1.472;2024-03-06T12:29:33;100141.53;;;12.54;65.18
81931;BME280;71395;43.488;1.472;2024-03-06T12:32:00;100138.28;;;12.62;65.30
81931;BME280;71395;43.488;1.472;2024-03-06T12:34:26;100129.69;;;12.60;65.68
81931;BME280;71395;43.488;1.472;2024-03-06T12:36:52;100136.16;;;12.74;65.06
81931;BME280;71395;43.488;1.472;2024-03-06T12:39:18;100116.78;;;12.72;65.17
81931;BME280;71395;43.488;1.472;2024-03-06T12:41:49;100117.88;;;12.76;65.32
81931;BME280;71395;43.488;1.472;2024-03-06T12:44:15;100099.31;;;12.75;64.89
81931;BME280;71395;43.488;1.472;2024-03-06T12:46:44;100108.72;;;12.87;65.17
81931;BME280;71395;43.488;1.472;2024-03-06T12:49:10;100107.66;;;12.93;65.01
81931;BME280;71395;43.488;1.472;2024-03-06T12:51:36;100109.78;;;13.02;64.66
81931;BME280;71395;43.488;1.472;2024-03-06T12:54:02;100078.06;;;12.88;64.70
81931;BME280;71395;43.488;1.472;2024-03-06T12:56:29;100093.09;;;13.05;64.40
81931;BME280;71395;43.488;1.472;2024-03-06T12:58:54;100055.97;;;12.81;63.94
81931;BME280;71395;43.488;1.472;2024-03-06T13:01:20;100052.22;;;12.77;63.81
81931;BME280;71395;43.488;1.472;2024-03-06T13:03:46;100093.91;;;13.05;63.89
81931;BME280;71395;43.488;1.472;2024-03-06T13:06:11;100087.72;;;13.05;63.43
81931;BME280;71395;43.488;1.472;2024-03-06T13:08:37;100090.13;;;13.06;63.91